Terminal Aerodrome Forecast
Issued by NWS Paducah, KY

Home | Current Version | Previous Version | Text Only | Print | Product List | Glossary On
Versions: 1 2 3 4 5 6 7 8 9 10 11 12 13 14 15 16
000
FTUS43 KPAH 241720
TAFEVV
TAF
KEVV 241720Z 2418/2518 15007KT P6SM BKN080
     FM250200 14005KT P6SM BKN040
     FM250800 15007KT P6SM OVC015 PROB30 2508/2512 3SM -TSRA
      BKN007CB=

USA.gov is the U.S. government's official web portal to all federal, state and local government web resources and services.